Time;durP1;ratioP1;P1;durP2;ratioP2;P2;SDS_P1;SDS_P2;PMS_P1;PMS_P2;Temp;Humidity;BMP_temperature;BMP_pressure;BME280_temperature;BME280_humidity;BME280_pressure;Samples;Min_cycle;Max_cycle;Signal;HPM_P1;HPM_P2
2022/06/20 00:00:08;;;;;;;14.23;2.20;;;;;;;14.41;100.00;101337.47;5016685;28;20014;-48
2022/06/20 00:02:40;;;;;;;14.43;2.20;;;;;;;14.39;99.72;101332.25;5011536;28;20560;-49
2022/06/20 00:05:06;;;;;;;14.63;2.22;;;;;;;14.35;99.45;101331.78;5016172;28;20290;-49
2022/06/20 00:07:31;;;;;;;12.63;2.17;;;;;;;14.34;99.90;101329.25;5016922;28;20132;-47
2022/06/20 00:09:56;;;;;;;14.85;2.55;;;;;;;14.29;100.00;101337.00;5015294;28;20025;-46
2022/06/20 00:12:26;;;;;;;12.05;2.50;;;;;;;14.27;100.00;101339.88;5007730;28;20033;-47
2022/06/20 00:14:56;;;;;;;13.65;2.30;;;;;;;14.29;100.00;101327.13;5013969;28;20025;-47
2022/06/20 00:17:22;;;;;;;12.18;2.20;;;;;;;14.29;100.00;101318.19;5016196;28;20029;-50
2022/06/20 00:19:48;;;;;;;12.07;2.20;;;;;;;14.31;100.00;101314.34;5015572;28;20563;-49
2022/06/20 00:22:13;;;;;;;14.40;2.42;;;;;;;14.28;99.82;101324.59;5016803;28;20096;-49
2022/06/20 00:24:39;;;;;;;10.18;2.00;;;;;;;14.30;99.25;101325.25;5015306;28;20021;-45
2022/06/20 00:27:08;;;;;;;16.10;2.00;;;;;;;14.26;100.00;101326.63;5015261;28;20061;-47
2022/06/20 00:29:35;;;;;;;12.50;1.92;;;;;;;14.24;99.97;101339.38;5016220;28;20017;-48
2022/06/20 00:32:01;;;;;;;9.18;2.05;;;;;;;14.20;100.00;101359.53;5016152;28;20046;-46
2022/06/20 00:34:26;;;;;;;10.43;2.00;;;;;;;14.19;99.78;101369.47;5009228;28;20483;-47
2022/06/20 00:36:51;;;;;;;9.95;1.80;;;;;;;14.15;99.97;101379.72;5015660;28;20107;-50
2022/06/20 00:39:19;;;;;;;10.20;2.17;;;;;;;14.17;99.71;101387.56;5016324;28;20017;-48
2022/06/20 00:41:45;;;;;;;13.52;1.90;;;;;;;14.18;100.00;101405.38;5015146;28;20032;-48
2022/06/20 00:44:14;;;;;;;9.20;1.92;;;;;;;14.21;99.19;101429.22;5014098;28;20033;-47
2022/06/20 00:46:49;;;;;;;7.03;1.90;;;;;;;14.22;99.02;101451.53;5014699;28;20033;-46
2022/06/20 00:49:22;;;;;;;15.05;2.20;;;;;;;14.19;98.85;101471.53;5014953;28;20085;-47
2022/06/20 00:51:58;;;;;;;15.35;2.10;;;;;;;14.29;99.64;101472.22;5015462;28;20064;-50
2022/06/20 00:54:29;;;;;;;10.48;1.90;;;;;;;14.28;97.85;101486.63;5015506;28;20100;-51
2022/06/20 00:57:00;;;;;;;18.05;1.90;;;;;;;14.31;98.77;101517.72;5014023;28;20075;-48
2022/06/20 00:59:30;;;;;;;;;;;;;;;14.42;97.23;101546.91;5015953;28;20472;-47
2022/06/20 01:01:56;;;;;;;12.48;2.15;;;;;;;14.33;98.94;101550.63;5015347;28;19913;-47
2022/06/20 01:04:44;;;;;;;10.75;2.08;;;;;;;14.27;100.00;101551.28;5025234;28;20113;-47
2022/06/20 01:07:19;;;;;;;7.75;2.10;;;;;;;14.16;100.00;101542.56;5003821;28;20048;-47
2022/06/20 01:09:49;;;;;;;12.68;2.17;;;;;;;14.17;100.00;101519.22;5023160;28;20064;-49
2022/06/20 01:12:19;;;;;;;9.98;2.10;;;;;;;14.24;100.00;101512.19;5021230;28;20288;-47
2022/06/20 01:14:45;;;;;;;12.90;2.17;;;;;;;14.32;100.00;101495.19;5003448;28;20484;-46
2022/06/20 01:17:28;;;;;;;14.63;1.90;;;;;;;14.38;100.00;101488.31;5019607;28;20021;-50
2022/06/20 01:20:14;;;;;;;12.95;2.35;;;;;;;14.40;100.00;101480.91;5026929;28;20025;-48
2022/06/20 01:22:50;;;;;;;15.73;2.00;;;;;;;14.35;100.00;101481.44;5035237;28;20064;-50
2022/06/20 01:25:44;;;;;;;11.90;2.13;;;;;;;14.36;100.00;101472.38;5034464;28;20497;-47
2022/06/20 01:28:14;;;;;;;9.27;2.33;;;;;;;14.35;100.00;101463.44;5035167;28;20278;-48
2022/06/20 01:30:43;;;;;;;6.78;1.80;;;;;;;14.36;100.00;101453.56;5033309;28;20417;-48
2022/06/20 01:33:11;;;;;;;7.22;1.88;;;;;;;14.33;100.00;101435.91;5034844;28;20287;-49
2022/06/20 01:38:22;;;;;;;9.07;2.33;;;;;;;14.21;100.00;101448.03;5021318;28;20110;-46
2022/06/20 01:43:34;;;;;;;10.10;1.77;;;;;;;14.06;100.00;101439.00;5026681;28;20067;-49
2022/06/20 01:46:01;;;;;;;10.52;1.85;;;;;;;14.06;100.00;101441.69;5025618;28;20029;-46
2022/06/20 01:48:30;;;;;;;17.48;2.25;;;;;;;13.98;100.00;101419.19;5013347;28;20436;-48
2022/06/20 01:50:57;;;;;;;7.85;2.22;;;;;;;13.98;100.00;101410.28;5017679;28;20484;-46
2022/06/20 01:53:28;;;;;;;11.10;1.88;;;;;;;14.00;100.00;101410.94;5016346;28;20112;-48
2022/06/20 01:55:55;;;;;;;8.68;1.88;;;;;;;14.01;100.00;101403.75;5028944;28;20454;-47
2022/06/20 01:58:32;;;;;;;7.40;1.60;;;;;;;13.95;100.00;101405.25;5009074;28;20293;-48
2022/06/20 02:01:00;;;;;;;10.70;2.22;;;;;;;13.93;100.00;101394.69;5016051;28;20536;-48
2022/06/20 02:03:28;;;;;;;9.30;1.83;;;;;;;13.93;100.00;101396.53;5034432;28;20166;-45
2022/06/20 02:05:55;;;;;;;10.27;2.17;;;;;;;13.78;100.00;101407.97;5033821;28;20028;-47
2022/06/20 02:08:23;;;;;;;13.38;2.13;;;;;;;13.75;100.00;101399.41;5034376;28;20047;-50
2022/06/20 02:10:56;;;;;;;10.20;2.05;;;;;;;13.71;100.00;101404.25;5033511;28;20108;-47
2022/06/20 02:13:24;;;;;;;10.43;2.03;;;;;;;13.71;100.00;101398.06;5032942;28;20035;-47
2022/06/20 02:15:53;;;;;;;12.45;2.10;;;;;;;13.67;100.00;101397.56;5034958;28;20079;-49
2022/06/20 02:18:19;;;;;;;9.70;1.73;;;;;;;13.64;100.00;101392.50;5022601;28;20443;-46
2022/06/20 02:20:48;;;;;;;13.40;2.28;;;;;;;13.65;100.00;101385.31;5014828;28;20152;-46
2022/06/20 02:23:20;;;;;;;10.02;2.00;;;;;;;13.64;100.00;101364.84;5026926;28;20305;-46
2022/06/20 02:25:48;;;;;;;10.48;2.20;;;;;;;13.66;100.00;101354.78;5033311;28;20105;-47
2022/06/20 02:28:20;;;;;;;11.80;2.33;;;;;;;13.67;100.00;101356.47;5022243;28;20110;-46
2022/06/20 02:30:46;;;;;;;8.48;2.00;;;;;;;13.65;100.00;101359.31;5019322;28;20029;-46
2022/06/20 02:33:16;;;;;;;11.40;2.08;;;;;;;13.60;100.00;101346.38;5027083;28;20441;-46
2022/06/20 02:35:42;;;;;;;14.25;2.60;;;;;;;13.62;100.00;101352.41;5004513;28;20422;-49
2022/06/20 02:38:07;;;;;;;14.07;2.15;;;;;;;13.59;100.00;101351.91;5024960;28;20507;-49
2022/06/20 02:40:33;;;;;;;8.93;2.00;;;;;;;13.54;100.00;101346.22;5032995;28;20383;-48
2022/06/20 02:43:10;;;;;;;14.65;2.17;;;;;;;13.43;100.00;101358.13;5037113;28;20033;-46
2022/06/20 02:45:38;;;;;;;9.68;2.10;;;;;;;13.41;100.00;101365.53;5025594;28;20029;-47
2022/06/20 02:48:07;;;;;;;9.77;1.92;;;;;;;13.36;100.00;101354.44;5037427;28;20696;-49
2022/06/20 02:50:37;;;;;;;7.55;1.95;;;;;;;13.35;100.00;101345.53;5026698;28;20036;-50
2022/06/20 02:53:07;;;;;;;19.95;2.33;;;;;;;13.34;100.00;101333.16;5020686;28;20080;-50
2022/06/20 02:55:35;;;;;;;9.93;2.10;;;;;;;13.34;100.00;101330.47;5028666;28;20024;-50
2022/06/20 02:58:06;;;;;;;5.72;1.55;;;;;;;13.32;100.00;101319.03;5036015;28;20346;-50
2022/06/20 03:00:52;;;;;;;;;;;;;;;13.41;100.00;101309.19;5024158;28;20535;-45
2022/06/20 03:03:38;;;;;;;7.40;1.60;;;;;;;13.29;100.00;101308.66;5015979;28;20386;-47
2022/06/20 03:06:06;;;;;;;12.30;1.88;;;;;;;13.20;100.00;101296.22;5033859;28;20032;-48
2022/06/20 03:08:32;;;;;;;9.05;1.90;;;;;;;13.15;100.00;101287.84;5036104;28;20020;-55
2022/06/20 03:11:04;;;;;;;15.63;2.28;;;;;;;13.14;100.00;101295.06;5036641;28;20571;-45
2022/06/20 03:13:30;;;;;;;11.70;1.90;;;;;;;13.14;100.00;101284.31;5026228;28;20051;-46
2022/06/20 03:15:57;;;;;;;15.45;1.95;;;;;;;13.18;100.00;101279.47;5037457;28;20291;-45
2022/06/20 03:18:24;;;;;;;7.60;1.98;;;;;;;13.14;100.00;101278.13;5037042;28;20290;-47
2022/06/20 03:20:49;;;;;;;6.32;1.85;;;;;;;13.14;100.00;101295.06;5029780;28;20095;-47
2022/06/20 03:23:32;;;;;;;14.05;2.22;;;;;;;13.15;100.00;101295.88;5016739;28;20080;-48
2022/06/20 03:25:59;;;;;;;14.80;2.38;;;;;;;13.14;100.00;101303.09;5020438;28;20098;-49
2022/06/20 03:28:27;;;;;;;9.73;2.10;;;;;;;13.13;100.00;101304.09;5030001;28;20111;-45
2022/06/20 03:30:53;;;;;;;9.80;2.25;;;;;;;13.17;100.00;101299.22;5029269;28;20077;-47
2022/06/20 03:33:21;;;;;;;16.17;2.40;;;;;;;13.19;100.00;101322.22;5011983;28;20324;-45
2022/06/20 03:36:08;;;;;;;14.38;2.50;;;;;;;13.19;100.00;101329.44;5035724;28;20112;-47
2022/06/20 03:38:36;;;;;;;8.05;1.98;;;;;;;13.12;100.00;101337.31;5036534;28;20033;-48
2022/06/20 03:41:06;;;;;;;8.32;2.20;;;;;;;13.18;100.00;101339.28;5035577;28;20031;-45
2022/06/20 03:43:33;;;;;;;10.77;2.72;;;;;;;13.21;100.00;101333.59;5037247;28;20494;-47
2022/06/20 03:46:02;;;;;;;13.25;2.30;;;;;;;13.30;100.00;101330.94;5037516;28;20348;-50
2022/06/20 03:48:55;;;;;;;16.00;2.47;;;;;;;13.42;100.00;101333.16;5035427;28;20511;-46
2022/06/20 03:51:24;;;;;;;10.93;2.30;;;;;;;13.47;100.00;101348.72;5032018;28;20056;-46
2022/06/20 03:54:03;;;;;;;10.95;2.40;;;;;;;13.52;100.00;101350.91;5032962;28;20350;-49
2022/06/20 03:56:40;;;;;;;7.22;2.08;;;;;;;13.54;100.00;101365.00;5016907;28;20063;-47
2022/06/20 03:59:17;;;;;;;9.93;1.83;;;;;;;13.55;100.00;101370.22;5021902;28;20029;-47
2022/06/20 04:01:52;;;;;;;10.88;1.98;;;;;;;13.60;100.00;101383.97;5037429;28;20036;-46
2022/06/20 04:04:23;;;;;;;13.80;2.15;;;;;;;13.62;100.00;101381.09;5027017;28;20053;-46
2022/06/20 04:07:01;;;;;;;13.27;2.25;;;;;;;13.66;100.00;101381.59;5018326;28;20025;-45
2022/06/20 04:12:23;;;;;;;7.15;1.80;;;;;;;13.82;100.00;101391.53;5016127;28;20560;-47
2022/06/20 04:15:09;;;;;;;12.70;2.10;;;;;;;13.89;100.00;101393.34;5036754;28;20029;-47
2022/06/20 04:20:36;;;;;;;7.85;2.35;;;;;;;13.91;100.00;101402.06;5009243;28;20098;-47
2022/06/20 04:23:07;;;;;;;11.68;2.03;;;;;;;13.92;100.00;101400.22;5029556;28;20021;-47
2022/06/20 04:25:37;;;;;;;18.80;2.10;;;;;;;13.90;100.00;101407.59;5008449;28;20235;-47
2022/06/20 04:28:33;;;;;;;13.32;1.98;;;;;;;13.94;100.00;101414.31;5028754;28;20021;-49
2022/06/20 04:31:12;;;;;;;13.90;2.30;;;;;;;13.96;100.00;101409.63;5013823;28;20179;-47
2022/06/20 04:34:03;;;;;;;11.57;2.13;;;;;;;13.96;100.00;101426.56;5023555;28;20466;-47
2022/06/20 04:36:39;;;;;;;10.35;2.53;;;;;;;13.94;100.00;101420.53;5033911;28;20024;-46
2022/06/20 04:39:22;;;;;;;10.52;2.20;;;;;;;13.93;100.00;101421.56;5020007;28;20057;-47
2022/06/20 04:42:03;;;;;;;12.98;2.60;;;;;;;13.92;100.00;101417.19;5017422;28;20036;-48
2022/06/20 04:44:40;;;;;;;;;;;;;;;13.92;100.00;101414.50;5036355;28;20044;-49
2022/06/20 04:47:21;;;;;;;8.82;2.33;;;;;;;13.96;100.00;101428.41;5035660;28;19912;-48
2022/06/20 04:49:46;;;;;;;11.17;2.07;;;;;;;13.95;100.00;101421.34;5035983;28;20032;-48
2022/06/20 04:52:15;;;;;;;10.70;1.98;;;;;;;13.93;100.00;101436.81;5035029;28;20272;-48
2022/06/20 04:54:40;;;;;;;15.80;2.60;;;;;;;13.98;100.00;101440.69;5021804;28;20096;-46
2022/06/20 04:57:09;;;;;;;6.57;1.90;;;;;;;13.96;100.00;101439.16;5026123;28;20514;-46
2022/06/20 04:59:37;;;;;;;8.32;1.90;;;;;;;13.96;100.00;101439.97;5024200;28;20030;-46
2022/06/20 05:02:06;;;;;;;7.88;1.75;;;;;;;14.05;100.00;101438.13;5010633;28;20496;-49
2022/06/20 05:04:42;;;;;;;10.10;2.20;;;;;;;14.12;100.00;101428.41;5033452;28;20090;-46
2022/06/20 05:07:17;;;;;;;9.93;2.20;;;;;;;14.21;100.00;101439.16;5032800;28;20056;-47
2022/06/20 05:09:47;;;;;;;9.50;2.13;;;;;;;14.13;100.00;101438.13;5026288;28;20044;-48
2022/06/20 05:12:21;;;;;;;10.05;1.90;;;;;;;14.07;100.00;101429.91;5016939;28;20025;-46
2022/06/20 05:14:59;;;;;;;10.18;1.90;;;;;;;14.11;100.00;101439.31;5018349;28;20022;-47
2022/06/20 05:17:29;;;;;;;10.02;1.77;;;;;;;14.15;100.00;101438.81;5035194;28;20450;-47
2022/06/20 05:20:00;;;;;;;8.10;1.67;;;;;;;14.11;100.00;101448.22;5034739;28;20353;-45
2022/06/20 05:22:31;;;;;;;12.02;1.73;;;;;;;14.15;100.00;101437.97;5033395;28;20025;-49
2022/06/20 05:25:00;;;;;;;9.00;1.77;;;;;;;14.22;100.00;101447.00;5029918;28;20079;-50
2022/06/20 05:27:30;;;;;;;8.90;1.60;;;;;;;14.27;100.00;101452.69;5034370;28;20029;-51
2022/06/20 05:30:00;;;;;;;8.02;1.98;;;;;;;14.32;100.00;101454.88;5034885;28;20024;-48
2022/06/20 05:33:03;;;;;;;13.55;2.20;;;;;;;14.38;100.00;101461.44;5022491;28;20357;-47
2022/06/20 05:35:57;;;;;;;7.60;1.88;;;;;;;14.41;100.00;101467.31;4990165;28;20116;-48
2022/06/20 05:38:23;;;;;;;8.60;2.20;;;;;;;14.43;100.00;101464.47;5026790;28;20045;-47
2022/06/20 05:40:58;;;;;;;10.55;2.45;;;;;;;14.50;100.00;101460.06;5033025;28;20032;-47
2022/06/20 05:43:27;;;;;;;8.43;2.30;;;;;;;14.57;100.00;101452.16;5007918;28;20029;-47
2022/06/20 05:45:57;;;;;;;14.35;2.13;;;;;;;14.68;100.00;101449.97;5023575;28;20029;-51
2022/06/20 05:48:53;;;;;;;9.95;2.38;;;;;;;14.65;100.00;101444.09;5027079;28;20147;-49
2022/06/20 05:51:23;;;;;;;7.40;2.05;;;;;;;14.61;100.00;101456.19;5034349;28;20048;-47
2022/06/20 05:54:01;;;;;;;13.52;2.20;;;;;;;14.60;100.00;101462.59;5022608;28;20048;-51
2022/06/20 05:56:35;;;;;;;9.25;2.13;;;;;;;14.61;100.00;101466.94;5029928;28;20026;-48
2022/06/20 05:59:03;;;;;;;14.18;2.15;;;;;;;14.63;100.00;101460.41;5029071;28;20040;-49
2022/06/20 06:01:32;;;;;;;9.75;1.92;;;;;;;14.68;100.00;101457.19;5034823;28;20026;-48
2022/06/20 06:04:07;;;;;;;11.75;2.22;;;;;;;14.67;100.00;101466.28;5013535;28;20403;-47
2022/06/20 06:06:45;;;;;;;12.55;2.00;;;;;;;14.74;100.00;101470.75;5024104;28;20025;-46
2022/06/20 06:09:23;;;;;;;8.35;2.33;;;;;;;14.71;100.00;101473.81;5028518;28;20017;-48
2022/06/20 06:12:02;;;;;;;10.00;1.98;;;;;;;14.70;100.00;101474.81;5033837;28;20060;-49
2022/06/20 06:14:47;;;;;;;12.02;1.95;;;;;;;14.64;100.00;101470.13;5015488;28;20075;-48
2022/06/20 06:17:34;;;;;;;9.90;2.03;;;;;;;14.63;100.00;101478.38;5018986;28;20035;-46
2022/06/20 06:20:10;;;;;;;12.05;1.90;;;;;;;14.54;100.00;101478.38;5033243;28;20467;-46
2022/06/20 06:22:43;;;;;;;6.05;1.65;;;;;;;14.51;100.00;101475.16;5027904;28;20025;-49
2022/06/20 06:25:29;;;;;;;9.07;2.00;;;;;;;14.68;100.00;101492.13;5027075;28;20024;-47
2022/06/20 06:28:06;;;;;;;16.73;2.08;;;;;;;14.82;100.00;101477.16;5033866;28;20020;-47
2022/06/20 06:30:52;;;;;;;13.60;2.17;;;;;;;14.99;100.00;101478.75;5033218;28;20116;-48
2022/06/20 06:33:25;;;;;;;7.88;2.20;;;;;;;15.09;100.00;101484.75;5024568;28;20152;-49
2022/06/20 06:36:15;;;;;;;9.88;2.33;;;;;;;15.16;100.00;101474.13;5017874;28;20033;-44
2022/06/20 06:38:48;;;;;;;10.45;2.08;;;;;;;14.94;100.00;101480.31;5016169;28;20052;-48
2022/06/20 06:41:28;;;;;;;9.75;1.70;;;;;;;14.82;100.00;101487.91;5033460;28;20036;-49
2022/06/20 06:43:56;;;;;;;8.90;1.80;;;;;;;14.85;100.00;101483.03;5019490;28;20157;-46
2022/06/20 06:46:29;;;;;;;9.48;2.20;;;;;;;14.99;100.00;101484.13;5020550;28;20067;-50
2022/06/20 06:49:08;;;;;;;9.68;1.80;;;;;;;15.18;100.00;101488.25;5019027;28;20227;-47
2022/06/20 06:51:51;;;;;;;7.70;2.00;;;;;;;15.53;100.00;101496.81;5033953;28;20021;-50
2022/06/20 06:54:46;;;;;;;8.98;2.28;;;;;;;15.60;97.11;101499.63;5026957;28;20033;-48
2022/06/20 06:57:29;;;;;;;10.98;1.90;;;;;;;15.76;97.71;101501.41;5033677;28;20136;-50
2022/06/20 07:00:20;;;;;;;10.18;2.38;;;;;;;16.13;97.01;101499.78;5033900;28;20033;-48
2022/06/20 07:02:52;;;;;;;8.10;2.13;;;;;;;16.60;95.09;101510.25;5032269;28;20056;-48
2022/06/20 07:05:27;;;;;;;8.90;1.95;;;;;;;16.51;90.02;101505.13;5002700;28;20037;-44
2022/06/20 07:07:58;;;;;;;11.32;2.55;;;;;;;16.45;90.07;101503.19;5018896;28;20021;-50
2022/06/20 07:10:31;;;;;;;7.90;2.03;;;;;;;16.64;90.38;101510.72;5023971;28;20279;-44
2022/06/20 07:13:04;;;;;;;7.35;1.98;;;;;;;16.59;89.78;101511.28;5033135;28;20024;-48
2022/06/20 09:30:28;;;;;;;11.25;2.55;;;;;;;19.19;57.70;101594.28;3620407;28;20088;-48
2022/06/20 09:33:02;;;;;;;11.95;3.17;;;;;;;19.57;54.38;101601.94;5014276;28;20243;-50
2022/06/20 09:35:30;;;;;;;10.32;2.88;;;;;;;19.95;54.87;101592.50;5032009;28;20541;-49
2022/06/20 09:38:14;;;;;;;10.10;2.33;;;;;;;20.48;51.67;101597.13;5032561;28;20032;-46
2022/06/20 09:40:55;;;;;;;14.82;3.38;;;;;;;20.40;53.85;101594.63;5033333;28;20158;-48
2022/06/20 09:43:50;;;;;;;10.43;3.15;;;;;;;20.66;53.79;101596.56;5008695;28;20037;-48
2022/06/20 09:46:33;;;;;;;7.60;2.55;;;;;;;20.69;53.15;101585.28;5004877;28;20038;-48
2022/06/20 09:49:26;;;;;;;10.90;2.97;;;;;;;20.83;51.48;101602.38;5031909;28;20031;-49
2022/06/20 09:52:05;;;;;;;8.40;2.40;;;;;;;20.27;51.83;101590.03;5020530;28;20026;-50
2022/06/20 09:54:37;;;;;;;9.93;2.78;;;;;;;20.31;52.51;101588.56;5015806;28;20025;-49
2022/06/20 09:57:32;;;;;;;9.65;2.65;;;;;;;21.02;53.48;101587.09;5014147;28;20028;-50
2022/06/20 10:00:25;;;;;;;16.33;3.30;;;;;;;21.32;53.26;101592.03;5020308;28;20205;-50
2022/06/20 10:02:58;;;;;;;11.27;3.20;;;;;;;20.53;54.86;101588.38;5022980;28;20032;-48
2022/06/20 10:05:36;;;;;;;8.48;2.95;;;;;;;20.27;55.23;101598.19;5034979;28;20403;-48
2022/06/20 10:08:16;;;;;;;12.80;3.03;;;;;;;20.50;53.43;101590.47;5015553;28;20086;-48
2022/06/20 10:10:57;;;;;;;10.35;3.00;;;;;;;20.73;54.55;101591.94;5027607;28;20029;-51
2022/06/20 10:13:43;;;;;;;9.95;2.78;;;;;;;20.60;52.09;101591.91;5027576;28;20017;-50
2022/06/20 10:16:34;;;;;;;14.27;3.28;;;;;;;20.65;52.99;101601.13;5013849;28;20850;-50
2022/06/20 10:19:24;;;;;;;13.77;3.25;;;;;;;20.54;50.82;101596.31;5008444;28;20392;-49
2022/06/20 10:22:26;;;;;;;9.90;2.92;;;;;;;20.63;53.73;101600.50;5032173;28;20758;-50
2022/06/20 10:25:09;;;;;;;14.73;3.33;;;;;;;20.64;53.46;101609.50;5005986;28;20029;-48
2022/06/20 10:27:56;;;;;;;9.40;2.90;;;;;;;20.65;53.05;101609.25;5014552;28;20036;-51
2022/06/20 10:30:45;;;;;;;12.25;3.03;;;;;;;20.69;52.84;101604.28;5031757;28;20500;-50
2022/06/20 10:33:27;;;;;;;14.35;2.92;;;;;;;20.85;51.23;101611.97;5033628;28;20029;-49
2022/06/20 10:36:44;;;;;;;11.77;3.20;;;;;;;21.48;53.80;101613.31;5026868;28;20032;-50
2022/06/20 10:39:10;;;;;;;10.15;2.70;;;;;;;21.54;49.51;101617.06;5009461;28;20032;-50
2022/06/20 10:41:58;;;;;;;8.02;2.42;;;;;;;21.31;51.54;101622.97;5033717;28;20116;-47
2022/06/20 10:44:56;;;;;;;15.80;2.60;;;;;;;21.15;51.29;101622.38;5031241;28;20024;-47
2022/06/20 10:47:40;;;;;;;12.77;3.22;;;;;;;20.91;51.70;101618.47;5011849;28;20391;-51
2022/06/20 10:50:32;;;;;;;16.48;3.00;;;;;;;20.79;51.18;101628.25;5018938;28;20031;-47
2022/06/20 10:53:16;;;;;;;12.85;2.60;;;;;;;21.23;50.21;101630.31;5010040;28;20290;-50
2022/06/20 10:56:06;;;;;;;9.98;3.10;;;;;;;21.57;48.06;101628.34;5018215;28;20030;-50
2022/06/20 10:58:43;;;;;;;20.73;3.78;;;;;;;21.89;50.06;101633.81;5023426;28;20064;-47
2022/06/20 11:01:28;;;;;;;8.20;2.75;;;;;;;21.79;49.91;101638.88;5019636;28;20028;-49
2022/06/20 11:04:02;;;;;;;8.48;3.05;;;;;;;21.95;47.32;101640.28;5035607;28;20029;-51
2022/06/20 11:06:33;;;;;;;16.40;3.03;;;;;;;21.73;49.45;101639.78;5037084;28;20115;-50
2022/06/20 11:09:13;;;;;;;10.57;3.03;;;;;;;22.10;52.08;101637.28;5036329;28;20086;-47
2022/06/20 11:11:58;;;;;;;10.68;2.95;;;;;;;22.40;48.33;101636.69;5032388;28;20040;-52
2022/06/20 11:14:40;;;;;;;8.57;2.50;;;;;;;22.30;47.02;101638.03;5028534;28;20483;-50
2022/06/20 11:17:41;;;;;;;10.05;2.92;;;;;;;21.88;47.42;101648.50;5013004;28;20040;-48
2022/06/20 11:20:24;;;;;;;14.05;2.80;;;;;;;21.59;47.96;101652.59;4989321;28;20500;-50
2022/06/20 11:22:58;;;;;;;8.77;2.30;;;;;;;21.78;47.43;101645.41;5017796;28;20033;-48
2022/06/20 11:25:44;;;;;;;8.10;2.45;;;;;;;22.19;46.41;101638.69;5034980;28;20451;-47
2022/06/20 11:28:31;;;;;;;8.73;2.60;;;;;;;22.27;44.58;101641.16;5027889;28;20106;-48
2022/06/20 11:31:07;;;;;;;8.50;2.78;;;;;;;22.14;45.69;101646.66;5013828;28;20444;-51
2022/06/20 11:34:02;;;;;;;14.93;2.58;;;;;;;21.96;47.94;101648.25;5019316;28;20025;-48
2022/06/20 11:36:51;;;;;;;11.35;2.60;;;;;;;21.77;48.16;101643.72;5036053;28;20116;-49
2022/06/20 11:39:47;;;;;;;9.20;2.38;;;;;;;22.25;48.16;101645.97;5012424;28;20056;-51
2022/06/20 11:42:56;;;;;;;11.73;2.72;;;;;;;22.90;45.18;101653.84;5035954;28;20331;-49
2022/06/20 11:45:46;;;;;;;8.63;2.30;;;;;;;22.81;44.72;101644.31;5028044;28;20020;-51
2022/06/20 11:48:11;;;;;;;7.05;2.17;;;;;;;22.75;45.56;101642.47;5036549;28;20055;-51
2022/06/20 11:51:05;;;;;;;9.23;2.60;;;;;;;22.44;44.89;101641.47;5031644;28;20388;-49
2022/06/20 11:53:48;;;;;;;9.27;2.67;;;;;;;22.18;46.48;101639.72;5013404;28;21286;-48
2022/06/20 11:56:31;;;;;;;7.13;2.28;;;;;;;22.02;47.41;101641.09;5011405;28;20020;-49
2022/06/20 11:59:02;;;;;;;8.07;2.40;;;;;;;22.00;45.74;101639.66;5036474;28;20021;-47
2022/06/20 12:01:36;;;;;;;7.90;2.58;;;;;;;22.02;44.86;101642.97;5024984;28;20113;-47
2022/06/20 12:04:11;;;;;;;7.95;2.35;;;;;;;21.82;44.27;101641.19;5011748;28;20044;-48
2022/06/20 12:06:58;;;;;;;10.75;2.60;;;;;;;21.97;44.77;101638.19;5024714;28;20051;-47
2022/06/20 12:09:43;;;;;;;10.48;2.63;;;;;;;22.23;43.81;101642.63;5035683;28;20017;-47
2022/06/20 12:12:43;;;;;;;9.32;2.40;;;;;;;22.20;46.31;101639.50;5012080;28;20328;-49
2022/06/20 12:15:18;;;;;;;9.43;2.20;;;;;;;22.16;44.27;101644.56;5036229;28;20078;-47
2022/06/20 12:18:04;;;;;;;7.28;2.10;;;;;;;21.82;45.99;101645.78;5034966;28;20029;-47
2022/06/20 12:23:30;;;;;;;9.27;2.33;;;;;;;22.73;44.09;101634.53;5026696;28;20138;-47
2022/06/20 12:26:13;;;;;;;10.52;2.45;;;;;;;23.26;45.75;101626.91;5021023;28;20033;-50
2022/06/20 12:28:42;;;;;;;9.07;2.42;;;;;;;22.86;42.63;101646.34;5026667;28;20020;-51
2022/06/20 12:31:07;;;;;;;8.23;2.55;;;;;;;22.31;45.36;101645.13;5036429;28;20489;-50
2022/06/20 12:33:35;;;;;;;10.70;2.50;;;;;;;22.12;45.59;101646.06;5029127;28;20052;-50
2022/06/20 12:36:16;;;;;;;11.35;2.60;;;;;;;22.48;45.72;101642.69;5014555;28;20437;-49
2022/06/20 12:38:50;;;;;;;13.10;2.65;;;;;;;22.32;44.96;101646.78;5018395;28;20117;-52
2022/06/20 12:41:20;;;;;;;9.02;2.58;;;;;;;21.82;45.29;101652.06;5036121;28;20056;-49
2022/06/20 12:43:54;;;;;;;7.72;2.67;;;;;;;21.70;47.78;101649.19;5026217;28;20108;-48
2022/06/20 12:47:05;;;;;;;13.55;2.97;;;;;;;21.75;46.27;101648.53;5036674;28;20333;-49
2022/06/20 12:49:41;;;;;;;7.28;2.40;;;;;;;22.11;44.71;101637.03;4975233;28;20653;-47
2022/06/20 12:52:09;;;;;;;9.85;2.50;;;;;;;22.90;45.15;101644.88;5032147;28;20316;-50
2022/06/20 12:55:02;;;;;;;12.63;2.15;;;;;;;22.48;44.40;101648.13;5035620;28;20040;-49
2022/06/20 12:57:49;;;;;;;7.57;2.15;;;;;;;22.01;43.49;101646.75;5028020;28;20052;-51
2022/06/20 13:00:17;;;;;;;9.50;2.53;;;;;;;21.54;43.82;101655.13;5016287;28;20185;-47
2022/06/20 13:03:17;;;;;;;12.02;2.75;;;;;;;22.04;44.47;101657.19;5031073;28;20480;-48
2022/06/20 13:06:07;;;;;;;9.27;2.55;;;;;;;23.65;44.43;101660.22;5035679;28;20025;-49
2022/06/20 13:09:03;;;;;;;9.82;2.42;;;;;;;25.27;39.42;101652.09;5014696;28;20519;-50
2022/06/20 13:11:37;;;;;;;13.00;2.22;;;;;;;24.29;38.77;101659.81;5025658;28;20037;-48
2022/06/20 13:14:17;;;;;;;8.45;2.25;;;;;;;23.36;40.00;101659.94;5024476;28;20527;-49
2022/06/20 13:17:13;;;;;;;14.80;2.53;;;;;;;22.97;42.08;101669.31;5035279;28;20455;-47
2022/06/20 13:20:15;;;;;;;12.88;2.60;;;;;;;23.88;42.18;101677.81;5022237;28;20034;-47
2022/06/20 13:23:03;;;;;;;11.15;3.00;;;;;;;24.17;39.94;101676.16;5013168;28;20040;-47
2022/06/20 13:25:38;;;;;;;11.30;2.80;;;;;;;24.54;38.76;101676.91;5017201;28;20064;-49
2022/06/20 13:28:32;;;;;;;11.45;2.97;;;;;;;23.65;40.35;101668.41;5034584;28;20040;-49
2022/06/20 13:31:20;;;;;;;8.48;2.58;;;;;;;24.16;40.21;101677.22;5005721;28;20435;-50
2022/06/20 13:34:15;;;;;;;8.68;2.80;;;;;;;24.34;40.48;101679.06;5034679;28;20025;-50
2022/06/20 13:36:43;;;;;;;10.13;3.25;;;;;;;23.31;41.12;101676.13;5032637;28;20091;-49
2022/06/20 13:39:30;;;;;;;11.82;2.70;;;;;;;24.79;38.19;101680.50;5033869;28;20357;-48
2022/06/20 13:42:14;;;;;;;9.85;2.70;;;;;;;27.30;35.42;101679.06;5034121;28;20048;-50
2022/06/20 13:45:18;;;;;;;9.35;2.42;;;;;;;27.64;32.80;101679.78;5009152;28;20865;-48
2022/06/20 13:47:46;;;;;;;9.32;2.53;;;;;;;26.13;34.28;101682.34;5008827;28;20033;-49
2022/06/20 13:50:23;;;;;;;8.02;2.28;;;;;;;24.76;38.70;101679.03;5032788;28;20035;-50
2022/06/20 13:53:02;;;;;;;10.65;2.72;;;;;;;23.61;40.94;101670.75;5024534;28;20033;-49
2022/06/20 13:56:10;;;;;;;12.77;2.40;;;;;;;23.81;40.23;101676.00;5014581;28;20125;-47
2022/06/20 13:58:45;;;;;;;15.18;2.67;;;;;;;25.00;38.99;101676.31;5031787;28;20041;-47
2022/06/20 14:01:15;;;;;;;12.95;2.90;;;;;;;24.12;40.03;101689.69;5034541;28;20107;-51
2022/06/20 14:03:54;;;;;;;11.82;2.63;;;;;;;22.92;42.98;101686.31;5034300;28;20040;-48
2022/06/20 14:06:25;;;;;;;11.50;2.60;;;;;;;22.42;45.66;101695.31;5034137;28;20025;-45
2022/06/20 14:08:55;;;;;;;10.70;2.60;;;;;;;24.14;42.28;101685.63;5024676;28;20159;-48
2022/06/20 14:11:31;;;;;;;8.63;2.58;;;;;;;26.74;37.22;101699.03;5031836;28;20323;-48
2022/06/20 14:13:59;;;;;;;15.07;2.72;;;;;;;28.05;32.87;101695.94;5005405;28;20029;-51
2022/06/20 14:16:29;;;;;;;12.57;2.60;;;;;;;29.40;31.86;101691.31;5012778;28;20579;-47
2022/06/20 14:18:56;;;;;;;9.25;2.20;;;;;;;29.93;30.20;101692.06;5011654;28;20041;-51
2022/06/20 14:21:22;;;;;;;9.77;2.28;;;;;;;30.26;28.20;101689.09;5025993;28;20107;-52
2022/06/20 14:23:53;;;;;;;13.90;2.35;;;;;;;31.11;27.64;101685.00;5003358;28;20029;-52
2022/06/20 14:26:57;;;;;;;8.20;2.53;;;;;;;32.61;28.02;101683.16;5011335;28;20056;-51
2022/06/20 14:29:26;;;;;;;12.90;2.42;;;;;;;32.06;25.07;101686.03;5003206;28;20037;-51